Time;durP1;ratioP1;P1;durP2;ratioP2;P2;SDS_P1;SDS_P2;PMS_P1;PMS_P2;Temp;Humidity;BMP_temperature;BMP_pressure;BME280_temperature;BME280_humidity;BME280_pressure;Samples;Min_cycle;Max_cycle;Signal;HPM_P1;HPM_P2
2023/01/01 00:01:13;;;;;;;26.80;12.68;;;;;;;8.78;98.27;99868.75;5110288;28;20430;-67
2023/01/01 00:03:41;;;;;;;30.30;12.65;;;;;;;8.73;98.36;99865.03;5104207;28;20032;-66
2023/01/01 00:06:10;;;;;;;33.50;12.18;;;;;;;8.77;99.01;99879.69;5120309;28;20031;-66
2023/01/01 00:08:36;;;;;;;28.42;11.07;;;;;;;8.78;98.33;99882.16;5103824;28;20249;-66
2023/01/01 00:11:03;;;;;;;24.27;9.10;;;;;;;8.81;98.59;99878.25;5108803;28;20535;-66
2023/01/01 00:13:29;;;;;;;30.35;9.77;;;;;;;8.79;98.07;99870.41;5099685;28;20024;-66
2023/01/01 00:15:54;;;;;;;26.02;9.52;;;;;;;8.82;98.63;99869.97;5078762;28;20031;-66
2023/01/01 00:18:20;;;;;;;22.52;8.65;;;;;;;8.82;99.09;99866.47;5101086;28;20122;-66
2023/01/01 00:20:45;;;;;;;27.13;8.07;;;;;;;8.80;98.75;99868.53;5097941;28;20039;-66
2023/01/01 00:23:11;;;;;;;28.88;8.55;;;;;;;8.82;98.84;99880.72;5097155;28;20035;-65
2023/01/01 00:25:39;;;;;;;27.23;8.95;;;;;;;8.78;98.82;99859.88;5099641;28;20032;-66
2023/01/01 00:28:05;;;;;;;23.48;7.80;;;;;;;8.82;98.49;99874.53;5114631;28;20730;-67
2023/01/01 00:30:30;;;;;;;26.73;8.60;;;;;;;8.82;98.39;99872.66;5109249;28;20024;-66
2023/01/01 00:32:56;;;;;;;23.20;8.63;;;;;;;8.79;99.40;99867.72;5101635;28;20028;-67
2023/01/01 00:35:25;;;;;;;25.20;8.00;;;;;;;8.85;99.39;99874.09;5107626;28;20036;-66
2023/01/01 00:37:52;;;;;;;23.92;8.75;;;;;;;8.84;98.61;99857.19;5115163;28;20106;-66
2023/01/01 00:40:17;;;;;;;25.02;8.73;;;;;;;8.84;99.31;99856.34;5102106;28;20053;-66
2023/01/01 00:42:43;;;;;;;16.55;7.70;;;;;;;8.86;99.08;99857.78;5094037;28;20032;-66
2023/01/01 00:45:08;;;;;;;25.13;8.82;;;;;;;8.81;98.98;99860.28;5099467;28;20028;-66
2023/01/01 00:47:34;;;;;;;22.00;7.85;;;;;;;8.80;99.02;99863.16;5082649;28;20048;-66
2023/01/01 00:49:59;;;;;;;22.77;8.27;;;;;;;8.84;99.01;99854.50;5100080;28;20028;-66
2023/01/01 00:52:25;;;;;;;23.25;8.63;;;;;;;8.83;99.12;99868.94;5095583;28;20038;-66
2023/01/01 00:54:50;;;;;;;22.50;8.60;;;;;;;8.85;98.96;99874.91;5101181;28;20024;-67
2023/01/01 00:57:15;;;;;;;25.45;9.00;;;;;;;8.88;98.62;99866.44;5104695;28;20107;-67
2023/01/01 00:59:41;;;;;;;27.25;9.98;;;;;;;8.88;99.02;99858.41;5100667;28;20035;-66
2023/01/01 01:02:06;;;;;;;26.17;8.95;;;;;;;8.88;98.90;99858.41;5097197;28;20107;-66
2023/01/01 01:04:32;;;;;;;27.17;9.15;;;;;;;8.86;99.76;99854.28;5103162;28;20102;-66
2023/01/01 01:06:58;;;;;;;29.90;9.95;;;;;;;8.83;99.23;99850.16;5084386;28;20107;-66
2023/01/01 01:09:23;;;;;;;30.75;8.82;;;;;;;8.81;99.58;99833.47;5095691;28;20258;-67
2023/01/01 01:11:49;;;;;;;24.10;8.98;;;;;;;8.83;99.08;99842.09;5095906;28;20057;-66
2023/01/01 01:14:14;;;;;;;24.02;9.85;;;;;;;8.82;99.66;99829.75;5097046;28;20055;-66
2023/01/01 01:16:40;;;;;;;24.00;9.13;;;;;;;8.79;99.63;99835.53;5096355;28;20042;-66
2023/01/01 01:19:06;;;;;;;23.80;10.20;;;;;;;8.81;99.43;99846.88;5095459;28;20038;-67
2023/01/01 01:21:33;;;;;;;24.52;9.70;;;;;;;8.84;99.74;99850.97;5096073;28;20024;-67
2023/01/01 01:24:00;;;;;;;28.42;9.70;;;;;;;8.77;99.75;99834.91;5093773;28;20024;-67
2023/01/01 01:26:31;;;;;;;25.60;9.73;;;;;;;8.80;99.04;99839.84;5097430;28;20040;-67
2023/01/01 01:28:57;;;;;;;30.25;11.35;;;;;;;8.78;99.67;99841.13;5096524;28;20409;-67
2023/01/01 01:31:28;;;;;;;28.55;11.50;;;;;;;8.77;99.66;99848.31;5095790;28;20032;-66
2023/01/01 01:33:53;;;;;;;29.67;11.93;;;;;;;8.76;99.10;99849.34;5094426;28;20075;-66
2023/01/01 01:36:20;;;;;;;31.02;11.10;;;;;;;8.73;99.25;99860.50;5095480;28;20055;-67
2023/01/01 01:38:46;;;;;;;25.30;10.38;;;;;;;8.79;99.32;99869.56;5090423;28;20032;-67
2023/01/01 01:41:14;;;;;;;31.30;10.35;;;;;;;8.78;99.96;99879.47;5094820;28;20063;-66
2023/01/01 01:43:40;;;;;;;28.08;11.18;;;;;;;8.74;99.13;99870.22;5096434;28;20019;-66
2023/01/01 01:46:13;;;;;;;33.40;11.20;;;;;;;8.78;99.54;99876.81;5095537;28;20485;-66
2023/01/01 01:48:43;;;;;;;30.63;11.50;;;;;;;8.72;99.68;99872.28;5096752;28;20024;-66
2023/01/01 01:51:10;;;;;;;33.13;11.55;;;;;;;8.84;99.80;99881.34;5104477;28;20031;-66
2023/01/01 01:53:40;;;;;;;31.77;11.70;;;;;;;8.66;99.34;99843.59;5102817;28;20036;-65
2023/01/01 01:56:12;;;;;;;28.92;10.95;;;;;;;8.61;99.14;99836.19;5112421;28;20371;-66
2023/01/01 01:58:37;;;;;;;27.45;11.07;;;;;;;8.81;99.48;99881.75;5099450;28;20509;-66
2023/01/01 02:01:03;;;;;;;27.75;10.65;;;;;;;8.81;99.29;99868.34;5104776;28;20052;-66
2023/01/01 02:03:39;;;;;;;28.67;10.48;;;;;;;8.84;99.30;99873.28;5108143;28;20042;-66
2023/01/01 02:06:05;;;;;;;26.98;10.82;;;;;;;8.77;99.51;99861.72;5100788;28;20027;-66
2023/01/01 02:08:32;;;;;;;28.60;11.32;;;;;;;8.84;99.58;99875.97;5094418;28;20093;-66
2023/01/01 02:10:57;;;;;;;28.52;10.85;;;;;;;8.83;99.84;99866.25;5105640;28;20035;-66
2023/01/01 02:13:23;;;;;;;33.60;10.38;;;;;;;8.81;99.66;99876.38;5103972;28;20035;-66
2023/01/01 02:15:56;;;;;;;32.70;11.10;;;;;;;8.82;99.87;99883.38;5094059;28;20027;-66
2023/01/01 02:18:35;;;;;;;34.17;11.32;;;;;;;8.58;99.98;99852.72;5098804;28;20053;-67
2023/01/01 02:21:06;;;;;;;32.88;10.75;;;;;;;8.78;99.56;99892.91;5113214;28;20370;-66
2023/01/01 02:23:45;;;;;;;26.60;10.10;;;;;;;8.80;100.00;99881.94;5102726;28;20028;-66
2023/01/01 02:26:37;;;;;;;31.85;10.68;;;;;;;8.81;100.00;99860.28;5113101;28;20511;-66
2023/01/01 02:29:11;;;;;;;28.70;10.02;;;;;;;8.30;100.00;99790.44;5104806;28;20023;-66
2023/01/01 02:31:46;;;;;;;29.83;11.38;;;;;;;8.77;100.00;99866.25;5102013;28;20485;-67
2023/01/01 02:34:16;;;;;;;26.98;10.40;;;;;;;8.77;100.00;99875.13;5113242;28;20125;-66
2023/01/01 02:36:50;;;;;;;30.27;11.07;;;;;;;8.82;100.00;99875.34;5103068;28;20475;-67
2023/01/01 02:39:18;;;;;;;27.02;11.35;;;;;;;8.80;100.00;99863.16;5106141;28;20043;-66
2023/01/01 02:41:47;;;;;;;22.73;10.25;;;;;;;8.93;100.00;99879.22;5110274;28;20038;-67
2023/01/01 02:44:14;;;;;;;27.90;10.40;;;;;;;8.96;99.76;99888.72;5098323;28;20031;-66
2023/01/01 02:46:40;;;;;;;25.85;10.45;;;;;;;8.90;100.00;99883.16;5109849;28;20028;-66
2023/01/01 02:49:05;;;;;;;30.25;10.75;;;;;;;8.98;100.00;99890.16;5087696;28;20498;-67
2023/01/01 02:51:58;;;;;;;30.23;10.48;;;;;;;9.01;100.00;99883.56;5102432;28;20093;-66
2023/01/01 02:54:23;;;;;;;29.67;10.68;;;;;;;9.00;100.00;99882.72;5083564;28;20035;-66
2023/01/01 02:57:02;;;;;;;32.28;10.30;;;;;;;8.99;99.80;99893.66;5109575;28;20028;-66
2023/01/01 03:02:39;;;;;;;26.52;9.95;;;;;;;8.93;100.00;99896.13;5100017;28;20118;-66
2023/01/01 03:05:14;;;;;;;26.50;9.88;;;;;;;8.93;100.00;99892.63;5105796;28;20074;-66
2023/01/01 03:08:04;;;;;;;27.85;10.48;;;;;;;8.96;100.00;99888.72;5109284;28;20028;-66
2023/01/01 03:10:39;;;;;;;28.30;10.93;;;;;;;8.76;100.00;99859.25;5084885;28;20027;-66
2023/01/01 03:13:35;;;;;;;25.98;10.80;;;;;;;9.01;100.00;99891.59;5105972;28;20419;-66
2023/01/01 03:16:33;;;;;;;23.83;9.98;;;;;;;9.02;100.00;99891.38;5114713;28;20031;-66
2023/01/01 03:19:36;;;;;;;22.05;10.10;;;;;;;8.99;100.00;99869.50;5120850;27;20581;-66
2023/01/01 03:22:08;;;;;;;25.23;10.32;;;;;;;9.00;100.00;99879.19;5057423;28;20051;-66
2023/01/01 03:24:38;;;;;;;26.65;10.82;;;;;;;9.00;100.00;99879.19;5114179;27;20390;-66
2023/01/01 03:27:13;;;;;;;23.60;10.65;;;;;;;8.87;100.00;99840.66;5108904;28;20037;-66
2023/01/01 03:29:41;;;;;;;28.08;10.85;;;;;;;9.03;100.00;99868.88;5104973;28;20439;-69
2023/01/01 03:32:11;;;;;;;27.95;11.25;;;;;;;9.07;100.00;99875.47;5116845;28;20054;-66
2023/01/01 03:34:56;;;;;;;25.13;10.23;;;;;;;9.09;100.00;99875.25;5105743;28;20043;-67
2023/01/01 03:37:26;;;;;;;24.88;10.32;;;;;;;9.10;100.00;99874.22;5106049;28;20066;-66
2023/01/01 03:39:56;;;;;;;26.55;10.32;;;;;;;9.10;100.00;99882.25;5113576;28;20043;-66
2023/01/01 03:42:35;;;;;;;25.77;10.20;;;;;;;8.98;100.00;99859.81;5101580;28;20065;-66
2023/01/01 03:45:18;;;;;;;25.30;10.05;;;;;;;9.16;99.93;99868.00;5109861;28;20418;-66
2023/01/01 03:47:44;;;;;;;25.67;10.23;;;;;;;9.18;100.00;99868.63;5112746;28;20031;-66
2023/01/01 03:50:10;;;;;;;22.38;9.98;;;;;;;9.18;99.82;99864.06;5099852;28;20028;-66
2023/01/01 03:52:38;;;;;;;24.40;9.40;;;;;;;9.25;100.00;99866.72;5089603;28;20068;-66
2023/01/01 03:55:16;;;;;;;21.52;9.85;;;;;;;9.26;99.88;99872.91;5105442;28;20042;-67
2023/01/01 03:57:54;;;;;;;21.40;9.55;;;;;;;9.24;99.62;99867.78;5103509;28;20598;-67
2023/01/01 04:00:39;;;;;;;22.88;9.15;;;;;;;9.24;99.97;99870.47;5113966;28;20852;-67
2023/01/01 04:03:27;;;;;;;;;;;;;;;9.23;99.77;99858.06;5107044;28;20058;-66
2023/01/01 04:05:52;;;;;;;21.05;8.52;;;;;;;9.11;99.26;99843.69;5084709;28;19912;-66
2023/01/01 04:08:18;;;;;;;25.50;9.32;;;;;;;9.15;100.00;99843.03;5113851;28;20041;-66
2023/01/01 04:10:49;;;;;;;24.30;9.52;;;;;;;9.14;100.00;99845.94;5103555;28;20032;-66
2023/01/01 04:13:15;;;;;;;30.13;9.77;;;;;;;9.12;100.00;99850.69;5107676;28;20036;-66
2023/01/01 04:15:40;;;;;;;22.02;9.27;;;;;;;9.09;99.71;99857.28;5113481;28;20057;-66
2023/01/01 04:18:06;;;;;;;18.50;9.15;;;;;;;9.06;100.00;99859.56;5101361;28;20415;-66
2023/01/01 04:20:32;;;;;;;21.15;9.18;;;;;;;9.04;99.77;99867.00;5115235;28;20023;-66
2023/01/01 04:22:58;;;;;;;21.50;9.23;;;;;;;9.07;99.85;99880.84;5105821;28;20028;-66
2023/01/01 04:25:24;;;;;;;25.02;10.07;;;;;;;9.05;99.98;99890.97;5108138;27;20055;-67
2023/01/01 04:27:49;;;;;;;22.92;9.48;;;;;;;9.05;100.00;99887.47;5113389;28;20023;-66
2023/01/01 04:30:15;;;;;;;24.60;9.88;;;;;;;9.02;99.79;99894.06;5102481;28;20036;-66
2023/01/01 04:32:41;;;;;;;29.77;9.77;;;;;;;9.00;99.79;99884.56;5112605;28;20081;-66
2023/01/01 04:35:08;;;;;;;23.75;9.32;;;;;;;9.01;100.00;99888.91;5108210;28;20028;-66
2023/01/01 04:37:35;;;;;;;23.00;9.15;;;;;;;8.97;99.76;99893.03;5105202;28;20024;-66
2023/01/01 04:40:01;;;;;;;24.83;8.90;;;;;;;8.98;99.47;99897.38;5115677;28;20036;-66
2023/01/01 04:42:26;;;;;;;23.02;9.00;;;;;;;8.89;99.72;99883.38;5085051;28;20028;-66
2023/01/01 04:44:54;;;;;;;25.25;9.40;;;;;;;8.93;99.65;99893.47;5076963;28;20028;-66
2023/01/01 04:47:21;;;;;;;25.35;9.35;;;;;;;8.96;99.18;99891.41;5109790;28;20405;-66
2023/01/01 04:49:46;;;;;;;24.90;9.70;;;;;;;8.88;100.00;99871.81;5103429;28;20437;-66
2023/01/01 04:52:11;;;;;;;25.67;9.40;;;;;;;8.90;99.61;99885.00;5097293;28;20039;-66
2023/01/01 04:54:37;;;;;;;25.25;10.23;;;;;;;8.87;99.65;99893.47;5103233;28;20070;-66
2023/01/01 04:57:02;;;;;;;27.23;9.55;;;;;;;8.84;99.11;99897.44;5110358;28;20035;-66
2023/01/01 04:59:29;;;;;;;21.48;8.43;;;;;;;8.89;99.15;99902.16;5111136;28;20031;-66
2023/01/01 05:01:55;;;;;;;21.52;7.70;;;;;;;8.87;99.82;99897.00;5101712;28;20035;-66
2023/01/01 05:04:20;;;;;;;18.40;6.78;;;;;;;8.82;99.19;99910.22;5115196;28;20106;-66
2023/01/01 05:06:46;;;;;;;16.08;5.93;;;;;;;8.62;99.31;99887.97;5103442;28;20051;-66
2023/01/01 05:09:11;;;;;;;15.45;5.88;;;;;;;8.61;99.35;99902.38;5107588;28;20032;-66
2023/01/01 05:11:37;;;;;;;19.25;5.63;;;;;;;8.54;99.38;99899.72;5112268;28;20055;-66
2023/01/01 05:14:03;;;;;;;13.57;4.57;;;;;;;8.60;99.64;99908.78;5100384;28;20032;-66
2023/01/01 05:16:35;;;;;;;16.00;4.10;;;;;;;8.63;100.00;99924.47;5114969;28;20426;-66
2023/01/01 05:19:01;;;;;;;14.55;4.28;;;;;;;8.64;99.11;99920.75;5105340;28;20019;-66
2023/01/01 05:21:35;;;;;;;11.40;3.63;;;;;;;8.67;98.59;99920.34;5107434;28;20073;-66
2023/01/01 05:24:02;;;;;;;;;;;;;;;8.59;98.85;99923.25;5115845;28;20023;-67
2023/01/01 05:26:31;;;;;;;15.63;3.65;;;;;;;8.57;98.92;99920.75;5084556;28;19916;-66
2023/01/01 05:28:58;;;;;;;13.52;3.47;;;;;;;8.53;98.42;99935.63;5111802;28;20032;-66
2023/01/01 05:31:26;;;;;;;13.00;3.45;;;;;;;8.51;99.30;99934.16;5110363;28;20088;-66
2023/01/01 05:33:52;;;;;;;10.90;3.42;;;;;;;8.49;98.65;99931.72;5102035;28;20028;-66
2023/01/01 05:36:24;;;;;;;16.63;3.50;;;;;;;8.42;99.01;99925.53;5115121;28;20045;-66
2023/01/01 05:38:50;;;;;;;11.43;3.63;;;;;;;8.46;98.62;99937.47;5103022;28;20016;-66
2023/01/01 05:41:19;;;;;;;14.02;3.55;;;;;;;8.44;99.06;99940.38;5108273;27;20444;-66
2023/01/01 05:43:44;;;;;;;15.60;3.65;;;;;;;8.34;99.13;99936.41;5103877;28;20032;-67
2023/01/01 05:46:13;;;;;;;15.57;3.50;;;;;;;8.43;99.12;99949.44;5104868;28;20372;-66
2023/01/01 05:48:38;;;;;;;12.38;2.97;;;;;;;8.37;98.59;99938.69;5108928;28;20027;-66
2023/01/01 05:51:08;;;;;;;11.48;3.00;;;;;;;8.31;98.51;99932.31;5107145;28;20034;-67
2023/01/01 05:53:34;;;;;;;6.93;2.40;;;;;;;8.25;98.91;99943.84;5109506;28;20028;-67
2023/01/01 05:56:00;;;;;;;16.00;3.17;;;;;;;8.21;98.55;99950.63;5102219;28;20039;-67
2023/01/01 05:58:27;;;;;;;9.90;2.88;;;;;;;8.19;98.53;99941.97;5114766;28;20027;-67
2023/01/01 06:00:52;;;;;;;14.55;3.13;;;;;;;8.23;98.92;99944.03;5104909;28;20027;-67
2023/01/01 06:03:21;;;;;;;13.10;3.22;;;;;;;8.18;98.42;99943.84;5090147;28;20036;-67
2023/01/01 06:05:47;;;;;;;8.77;2.53;;;;;;;8.13;99.00;99945.47;5113199;28;20417;-67
2023/01/01 06:08:16;;;;;;;10.80;2.65;;;;;;;8.12;98.58;99941.16;5101754;28;20024;-67
2023/01/01 06:10:41;;;;;;;10.52;2.00;;;;;;;8.05;98.37;99938.47;5128662;27;20471;-67
2023/01/01 06:13:07;;;;;;;6.18;1.83;;;;;;;8.14;98.62;99955.97;5106526;28;20058;-67
2023/01/01 06:15:33;;;;;;;10.55;1.83;;;;;;;8.10;98.14;99954.72;5105754;28;20098;-68
2023/01/01 06:17:58;;;;;;;9.30;1.73;;;;;;;7.93;97.74;99940.91;5095209;28;20078;-67
2023/01/01 06:20:23;;;;;;;5.97;1.75;;;;;;;8.11;98.55;99975.16;5099697;28;20034;-67
2023/01/01 06:22:49;;;;;;;6.72;1.63;;;;;;;8.14;98.18;99973.91;5111554;28;20031;-67
2023/01/01 06:25:14;;;;;;;12.88;1.63;;;;;;;8.08;98.21;99978.25;5107422;28;20028;-67
2023/01/01 06:27:40;;;;;;;7.32;1.30;;;;;;;7.80;97.75;99934.69;5102824;28;20036;-67
2023/01/01 06:30:06;;;;;;;6.07;1.15;;;;;;;8.06;98.25;99979.47;5112871;28;20505;-67
2023/01/01 06:32:32;;;;;;;9.18;1.23;;;;;;;7.91;98.44;99960.88;5101167;28;20080;-68
2023/01/01 06:34:58;;;;;;;6.43;1.20;;;;;;;8.07;97.74;99983.78;5108983;28;20028;-67
2023/01/01 06:37:23;;;;;;;9.40;1.50;;;;;;;7.92;98.06;99962.53;5108690;28;20030;-67
2023/01/01 06:39:49;;;;;;;9.52;1.50;;;;;;;8.00;98.54;99979.25;5102073;28;20110;-67
2023/01/01 06:42:15;;;;;;;7.88;1.50;;;;;;;7.93;98.07;99974.91;5113708;28;20043;-67
2023/01/01 06:44:40;;;;;;;5.75;1.20;;;;;;;7.77;98.05;99962.69;5098147;28;20027;-67
2023/01/01 06:47:06;;;;;;;10.82;1.55;;;;;;;7.86;97.88;99979.41;5108080;28;20410;-67
2023/01/01 06:49:31;;;;;;;6.97;1.17;;;;;;;7.77;98.59;99965.38;5097320;28;20024;-67
2023/01/01 06:51:57;;;;;;;9.70;1.30;;;;;;;7.80;98.66;99969.50;5094885;28;20032;-67
2023/01/01 06:54:22;;;;;;;9.98;1.33;;;;;;;7.83;98.38;99983.31;5100884;28;20028;-66
2023/01/01 06:56:48;;;;;;;6.30;1.23;;;;;;;7.69;98.23;99962.88;5109892;28;20070;-67
2023/01/01 06:59:15;;;;;;;5.90;1.30;;;;;;;7.81;98.24;99990.72;5106944;28;20027;-67
2023/01/01 07:01:40;;;;;;;5.72;1.00;;;;;;;7.73;97.94;99969.47;5103963;28;20031;-67
2023/01/01 07:04:10;;;;;;;6.00;1.00;;;;;;;7.81;98.43;99976.50;5112683;28;20036;-67
2023/01/01 07:06:36;;;;;;;6.35;1.33;;;;;;;7.81;97.91;99987.22;5100501;28;20028;-68
2023/01/01 07:09:03;;;;;;;8.18;1.30;;;;;;;7.81;97.93;99992.56;5109600;28;20039;-67
2023/01/01 07:11:29;;;;;;;5.30;1.00;;;;;;;7.79;97.85;99990.09;5109027;28;20425;-67
2023/01/01 07:13:55;;;;;;;6.38;1.20;;;;;;;7.79;97.94;100003.50;5101308;28;20099;-67
2023/01/01 07:16:21;;;;;;;5.38;1.10;;;;;;;7.75;98.09;99996.91;5113067;28;20127;-67
2023/01/01 07:18:47;;;;;;;5.35;1.02;;;;;;;7.78;97.89;99999.16;5101071;28;20095;-67
2023/01/01 07:21:29;;;;;;;6.82;1.13;;;;;;;7.77;97.75;99994.84;5106030;28;20028;-67
2023/01/01 07:24:04;;;;;;;7.65;1.80;;;;;;;7.69;98.27;99992.34;5110682;28;20084;-67
2023/01/01 07:26:30;;;;;;;;;;;;;;;7.77;97.96;100009.03;5084435;28;20027;-67
2023/01/01 07:28:56;;;;;;;10.20;1.50;;;;;;;7.71;97.53;99998.31;5109658;28;19915;-67
2023/01/01 07:31:22;;;;;;;6.90;1.42;;;;;;;7.74;97.89;100008.63;5107237;28;20044;-67
2023/01/01 07:33:47;;;;;;;5.85;1.20;;;;;;;7.78;97.78;100009.88;5084557;28;20027;-67
2023/01/01 07:36:12;;;;;;;6.13;0.90;;;;;;;7.78;97.31;100007.19;5111960;28;20479;-67
2023/01/01 07:38:38;;;;;;;8.07;1.20;;;;;;;7.76;98.02;100010.06;5101024;28;20023;-66
2023/01/01 07:41:04;;;;;;;10.93;1.30;;;;;;;7.74;97.99;100016.66;5108917;28;20032;-67
2023/01/01 07:43:29;;;;;;;10.43;1.30;;;;;;;7.53;97.96;99998.84;5107757;28;20035;-67
2023/01/01 07:45:55;;;;;;;8.02;1.15;;;;;;;7.60;97.59;100001.56;5100122;28;20028;-67
2023/01/01 07:48:21;;;;;;;10.77;1.30;;;;;;;7.57;98.09;100007.31;5111333;28;20059;-67
2023/01/01 07:50:46;;;;;;;8.25;1.10;;;;;;;7.70;98.27;100039.50;5083994;28;20031;-67
2023/01/01 07:53:12;;;;;;;6.05;1.20;;;;;;;7.67;98.14;100047.94;5105462;28;20059;-67
2023/01/01 07:55:37;;;;;;;9.43;1.30;;;;;;;7.68;97.70;100060.28;5108822;28;20039;-66
2023/01/01 07:58:03;;;;;;;8.50;1.48;;;;;;;7.60;98.35;100039.06;5099892;28;20066;-66
2023/01/01 08:00:29;;;;;;;7.03;1.00;;;;;;;7.58;98.17;100054.47;5113276;28;20023;-66
2023/01/01 08:02:54;;;;;;;6.07;1.10;;;;;;;7.63;97.78;100060.06;5106091;28;20019;-67
2023/01/01 08:05:19;;;;;;;4.70;1.10;;;;;;;7.65;97.96;100069.56;5108324;28;20028;-66
2023/01/01 08:07:47;;;;;;;5.85;1.45;;;;;;;7.67;97.99;100075.53;5113541;28;20063;-67
2023/01/01 08:10:13;;;;;;;9.07;1.67;;;;;;;7.64;98.07;100072.44;5102903;28;20053;-67
2023/01/01 08:12:39;;;;;;;6.53;1.20;;;;;;;7.68;97.78;100065.66;5115811;28;20418;-67
2023/01/01 08:15:05;;;;;;;7.15;1.00;;;;;;;7.70;97.88;100063.59;5106503;28;20034;-66
2023/01/01 08:17:30;;;;;;;7.43;1.60;;;;;;;7.73;97.75;100063.22;5106071;28;20040;-66
2023/01/01 08:19:56;;;;;;;6.82;1.55;;;;;;;7.74;97.73;100064.84;5114858;28;20038;-67
2023/01/01 08:22:21;;;;;;;12.30;1.10;;;;;;;7.68;98.17;100057.59;5083680;28;20035;-67
2023/01/01 08:24:48;;;;;;;5.72;1.00;;;;;;;7.59;98.05;100038.22;5086336;28;20052;-67
2023/01/01 08:27:15;;;;;;;6.80;0.98;;;;;;;7.62;97.93;100047.72;5081462;28;20479;-67
2023/01/01 08:29:41;;;;;;;4.88;0.90;;;;;;;7.67;98.14;100058.66;5098282;28;20031;-66
2023/01/01 08:32:06;;;;;;;7.28;1.77;;;;;;;7.50;98.13;100047.44;5097263;28;20111;-67
2023/01/01 08:34:32;;;;;;;9.25;1.52;;;;;;;7.67;98.38;100080.88;5082395;28;20066;-66
2023/01/01 08:36:58;;;;;;;10.90;2.45;;;;;;;7.66;97.71;100097.16;5100023;28;20019;-67
2023/01/01 08:39:24;;;;;;;10.68;2.25;;;;;;;7.63;97.99;100082.31;5098770;28;20454;-67
2023/01/01 08:41:49;;;;;;;8.80;1.75;;;;;;;7.65;97.72;100095.50;5100867;28;20031;-66
2023/01/01 08:44:14;;;;;;;6.28;1.10;;;;;;;7.60;98.48;100093.41;5099538;28;20161;-67
2023/01/01 08:46:40;;;;;;;5.68;1.80;;;;;;;7.58;97.75;100105.34;5100872;28;20165;-66
2023/01/01 08:49:05;;;;;;;14.75;2.00;;;;;;;7.53;98.05;100104.09;5104252;28;20027;-66
2023/01/01 08:51:31;;;;;;;10.05;2.47;;;;;;;7.65;98.03;100111.56;5110121;28;20034;-67
2023/01/01 08:53:56;;;;;;;6.57;2.20;;;;;;;7.59;98.02;100102.47;5099700;28;20437;-67
2023/01/01 08:56:21;;;;;;;7.22;2.05;;;;;;;7.65;98.38;100115.09;5111566;28;20032;-66
2023/01/01 08:58:48;;;;;;;10.43;1.55;;;;;;;7.67;98.37;100104.16;5095716;28;20044;-67
2023/01/01 09:01:13;;;;;;;8.95;1.30;;;;;;;7.56;98.34;100084.13;5093049;28;20023;-67
2023/01/01 09:03:39;;;;;;;5.68;0.90;;;;;;;7.70;98.43;100106.44;5095389;28;20081;-66
2023/01/01 09:06:04;;;;;;;8.18;1.10;;;;;;;7.71;98.02;100100.06;5094686;28;20059;-67
2023/01/01 09:08:30;;;;;;;7.93;1.30;;;;;;;7.67;97.67;100096.94;5111193;28;20028;-66
2023/01/01 09:11:00;;;;;;;5.97;1.15;;;;;;;7.71;98.28;100095.53;5102269;28;20474;-67
2023/01/01 09:13:26;;;;;;;8.65;1.30;;;;;;;7.71;98.24;100105.41;5103668;28;20035;-66
2023/01/01 09:15:51;;;;;;;10.18;1.35;;;;;;;7.73;98.26;100114.09;5099638;28;20081;-68
2023/01/01 09:18:17;;;;;;;5.93;1.25;;;;;;;7.65;98.21;100100.84;5111699;28;20039;-66
2023/01/01 09:20:42;;;;;;;10.80;1.67;;;;;;;7.75;98.50;100104.03;5081735;28;20038;-66
2023/01/01 09:23:10;;;;;;;10.35;1.80;;;;;;;7.71;98.25;100100.88;5103481;28;20439;-65
2023/01/01 09:25:36;;;;;;;8.05;1.70;;;;;;;7.74;98.37;100107.69;5101898;28;20157;-65
2023/01/01 09:28:07;;;;;;;7.38;1.40;;;;;;;7.77;98.21;100115.34;5094167;28;20115;-66
2023/01/01 09:30:33;;;;;;;9.50;1.40;;;;;;;7.74;97.98;100119.25;5094125;28;20061;-66
2023/01/01 09:33:00;;;;;;;10.20;1.90;;;;;;;7.77;97.81;100132.22;5094079;28;20035;-66
2023/01/01 09:35:25;;;;;;;7.93;2.60;;;;;;;7.74;98.16;100137.16;5093159;28;20387;-65
2023/01/01 09:37:51;;;;;;;6.45;2.25;;;;;;;7.72;98.50;100133.88;5096167;28;20032;-67
2023/01/01 09:40:50;;;;;;;6.15;1.70;;;;;;;7.62;97.79;100106.63;5097438;28;20115;-68
2023/01/01 09:43:44;;;;;;;13.32;3.30;;;;;;;7.72;98.45;100131.19;5106571;28;20019;-68
2023/01/01 09:46:10;;;;;;;6.40;1.65;;;;;;;7.71;97.83;100133.03;5104801;28;20030;-67
2023/01/01 09:48:50;;;;;;;7.07;2.05;;;;;;;7.71;98.22;100126.84;5109335;28;20433;-67
2023/01/01 09:51:18;;;;;;;6.32;1.40;;;;;;;7.69;98.70;100121.69;5097930;28;20081;-66
2023/01/01 09:54:19;;;;;;;5.25;1.17;;;;;;;7.69;98.60;100123.56;5107761;28;20035;-66
2023/01/01 09:56:44;;;;;;;9.45;1.60;;;;;;;7.60;98.56;100122.03;5112541;27;20462;-68
2023/01/01 09:59:10;;;;;;;5.95;1.30;;;;;;;7.64;98.01;100129.47;5104609;28;20035;-66
2023/01/01 10:02:00;;;;;;;8.32;1.50;;;;;;;7.75;98.43;100130.81;5106686;28;20036;-68
2023/01/01 10:04:35;;;;;;;8.45;1.92;;;;;;;7.73;98.28;100116.78;5104838;28;20513;-66
2023/01/01 10:07:19;;;;;;;6.68;1.60;;;;;;;7.79;97.99;100115.16;5104813;28;20028;-65
2023/01/01 10:09:58;;;;;;;5.55;1.30;;;;;;;7.60;98.17;100090.75;5097494;28;20047;-66
2023/01/01 10:12:42;;;;;;;7.47;1.75;;;;;;;7.81;98.06;100121.94;5105714;28;20360;-66
2023/01/01 10:15:22;;;;;;;5.47;1.70;;;;;;;7.79;97.87;100124.03;5102281;28;20532;-67
2023/01/01 10:18:14;;;;;;;3.92;1.45;;;;;;;7.80;98.28;100128.34;5107530;28;20079;-66
2023/01/01 10:20:46;;;;;;;9.38;1.65;;;;;;;7.72;98.28;100129.34;5064434;28;20143;-67
2023/01/01 10:23:21;;;;;;;8.32;1.48;;;;;;;7.82;98.22;100147.72;5073793;28;20392;-67
2023/01/01 10:25:46;;;;;;;5.97;1.40;;;;;;;7.81;98.28;100159.44;5055860;28;20036;-66
2023/01/01 10:28:25;;;;;;;5.18;1.52;;;;;;;7.84;98.44;100180.47;5071761;28;20043;-66
2023/01/01 10:30:57;;;;;;;7.63;1.77;;;;;;;7.87;97.75;100189.97;5069579;28;20064;-65
2023/01/01 10:33:22;;;;;;;7.65;1.70;;;;;;;7.84;97.93;100201.91;5072753;28;20039;-66
2023/01/01 10:35:51;;;;;;;11.07;1.70;;;;;;;7.85;98.45;100198.22;5072081;28;20032;-66
2023/01/01 10:38:22;;;;;;;6.40;1.63;;;;;;;7.87;97.99;100198.03;5072686;28;20044;-66
2023/01/01 10:40:49;;;;;;;7.07;2.00;;;;;;;7.77;98.03;100179.63;5072888;28;20423;-67
2023/01/01 10:43:15;;;;;;;3.90;1.42;;;;;;;7.75;98.22;100187.88;5040599;28;20040;-66
2023/01/01 10:45:46;;;;;;;6.47;1.83;;;;;;;7.76;98.73;100177.97;5073582;28;20044;-66
2023/01/01 10:48:26;;;;;;;8.30;1.80;;;;;;;7.83;98.36;100186.06;5071244;28;20059;-66
2023/01/01 10:51:00;;;;;;;6.05;2.08;;;;;;;7.30;97.92;100104.34;5080392;28;20548;-66
2023/01/01 10:53:33;;;;;;;7.68;2.33;;;;;;;7.85;98.18;100194.72;5108546;28;20058;-66
2023/01/01 10:56:17;;;;;;;10.95;2.30;;;;;;;7.82;97.92;100190.59;5103134;28;20043;-66
2023/01/01 10:58:46;;;;;;;9.68;2.40;;;;;;;7.87;98.15;100198.03;5084934;28;20022;-66
2023/01/01 11:01:25;;;;;;;7.55;2.03;;;;;;;7.93;98.24;100203.41;5109378;28;20028;-66
2023/01/01 11:04:01;;;;;;;8.30;2.40;;;;;;;7.92;98.40;100209.81;5111977;28;20031;-66
2023/01/01 11:06:36;;;;;;;5.35;1.70;;;;;;;7.86;97.47;100205.25;5101334;28;20061;-66
2023/01/01 11:09:05;;;;;;;6.95;2.08;;;;;;;7.82;98.19;100209.34;5109184;28;20086;-66
2023/01/01 11:11:47;;;;;;;6.68;1.63;;;;;;;7.79;98.24;100206.22;5107463;28;20504;-66
2023/01/01 11:14:37;;;;;;;5.90;1.70;;;;;;;7.74;97.84;100207.63;5100468;28;20047;-66
2023/01/01 11:17:03;;;;;;;4.93;1.33;;;;;;;7.60;98.04;100205.03;5101720;28;20036;-66
2023/01/01 11:19:35;;;;;;;3.97;0.95;;;;;;;7.43;98.09;100199.16;5105692;28;20027;-66
2023/01/01 11:22:01;;;;;;;3.20;1.40;;;;;;;7.39;97.71;100209.41;5100169;28;20028;-66
2023/01/01 11:24:29;;;;;;;3.78;1.23;;;;;;;7.41;97.84;100217.25;5112875;28;20028;-66
2023/01/01 11:27:20;;;;;;;5.18;1.35;;;;;;;7.39;97.65;100211.28;5102320;28;20030;-66
2023/01/01 11:29:45;;;;;;;5.57;1.30;;;;;;;7.39;97.13;100222.81;5102396;28;20494;-66
2023/01/01 11:32:21;;;;;;;2.13;1.20;;;;;;;7.38;96.84;100218.44;5101111;28;20122;-66
2023/01/01 11:34:56;;;;;;;2.63;1.08;;;;;;;7.32;97.25;100211.22;5084309;28;20394;-66
2023/01/01 11:37:29;;;;;;;2.45;0.93;;;;;;;7.32;96.59;100207.69;5108690;28;20492;-66
2023/01/01 11:39:57;;;;;;;3.13;1.15;;;;;;;7.16;96.79;100201.59;5113024;28;20032;-65
2023/01/01 11:42:34;;;;;;;4.70;1.10;;;;;;;7.11;96.67;100193.31;5103205;28;20101;-66
2023/01/01 11:45:17;;;;;;;1.58;1.00;;;;;;;6.82;97.40;100187.06;5112135;28;20028;-66